Time;durP1;ratioP1;P1;durP2;ratioP2;P2;SDS_P1;SDS_P2;PMS_P1;PMS_P2;Temp;Humidity;BMP_temperature;BMP_pressure;BME280_temperature;BME280_humidity;BME280_pressure;Samples;Min_cycle;Max_cycle;Signal;HPM_P1;HPM_P2
2022/10/29 00:01:35;;;;;;;11.55;4.75;;;13.10;99.90;;;;;;4984913;28;20050;-80
2022/10/29 00:04:00;;;;;;;7.13;4.57;;;13.10;99.90;;;;;;4986330;28;20074;-80
2022/10/29 00:06:27;;;;;;;14.50;4.20;;;13.10;99.90;;;;;;4986778;28;20046;-80
2022/10/29 00:08:52;;;;;;;13.98;5.35;;;13.00;99.90;;;;;;4986207;28;20081;-79
2022/10/29 00:11:20;;;;;;;15.57;6.00;;;13.00;99.90;;;;;;4987023;28;20473;-80
2022/10/29 00:13:47;;;;;;;9.13;6.35;;;13.00;99.90;;;;;;4985947;28;20049;-80
2022/10/29 00:16:18;;;;;;;13.43;6.65;;;13.00;99.90;;;;;;4985913;28;20104;-80
2022/10/29 00:18:44;;;;;;;31.02;6.45;;;13.00;99.90;;;;;;4985020;28;20066;-79
2022/10/29 00:21:13;;;;;;;19.38;5.47;;;13.10;99.90;;;;;;4985808;28;20505;-79
2022/10/29 00:23:39;;;;;;;10.88;5.40;;;13.00;99.90;;;;;;4981470;28;20042;-79
2022/10/29 00:26:05;;;;;;;9.75;5.55;;;13.00;99.90;;;;;;4985580;28;20050;-80
2022/10/29 00:28:31;;;;;;;5.65;4.28;;;13.00;99.90;;;;;;4984877;28;20053;-79
2022/10/29 00:31:02;;;;;;;10.50;5.60;;;13.00;99.90;;;;;;4984673;28;20046;-79
2022/10/29 00:33:28;;;;;;;8.07;5.25;;;13.00;99.90;;;;;;4968833;28;20485;-79
2022/10/29 00:35:59;;;;;;;9.45;5.85;;;13.00;99.90;;;;;;4984785;28;20046;-80
2022/10/29 00:38:26;;;;;;;10.65;6.28;;;13.00;99.90;;;;;;4984249;28;20141;-79
2022/10/29 00:40:52;;;;;;;9.82;6.30;;;13.00;99.90;;;;;;4985314;28;20524;-80
2022/10/29 00:43:20;;;;;;;25.67;5.82;;;13.00;99.90;;;;;;4984419;28;20084;-79
2022/10/29 00:45:51;;;;;;;9.77;6.50;;;13.00;99.90;;;;;;4986200;28;20133;-79
2022/10/29 00:48:17;;;;;;;6.33;4.87;;;13.00;99.90;;;;;;4986323;28;20053;-79
2022/10/29 00:50:45;;;;;;;7.47;4.97;;;13.00;99.90;;;;;;4985878;28;20290;-80
2022/10/29 00:53:11;;;;;;;7.45;4.55;;;12.90;99.90;;;;;;4984380;28;20493;-79
2022/10/29 00:55:36;;;;;;;8.88;5.30;;;13.00;99.90;;;;;;4985858;28;20050;-79
2022/10/29 00:58:02;;;;;;;9.27;5.72;;;12.90;99.90;;;;;;4984907;28;20090;-79
2022/10/29 01:00:28;;;;;;;9.63;5.50;;;12.90;99.90;;;;;;4984669;28;20457;-79
2022/10/29 01:02:54;;;;;;;9.05;4.80;;;13.00;99.90;;;;;;4985522;28;20038;-79
2022/10/29 01:05:22;;;;;;;9.15;5.82;;;13.00;99.90;;;;;;4984847;28;20042;-80
2022/10/29 01:07:48;;;;;;;14.60;5.28;;;13.00;99.90;;;;;;5069343;23;20085;-76
2022/10/29 01:10:15;;;;;;;5.75;3.88;;;12.90;99.90;;;;;;5004183;28;20583;-74
2022/10/29 01:13:17;;;;;;;10.95;4.40;;;12.90;99.90;;;;;;5025384;28;20033;-76
2022/10/29 01:16:09;;;;;;;7.55;4.15;;;12.90;99.90;;;;;;5007550;28;20454;-76
2022/10/29 01:18:46;;;;;;;44.05;4.40;;;12.90;99.90;;;;;;5025236;28;20033;-75
2022/10/29 01:21:37;;;;;;;5.03;3.45;;;12.90;99.90;;;;;;5006929;28;20141;-76
2022/10/29 01:24:05;;;;;;;5.85;3.30;;;12.90;99.90;;;;;;5024866;28;20518;-75
2022/10/29 01:27:06;;;;;;;4.57;2.97;;;12.90;99.90;;;;;;4993337;28;20629;-75
2022/10/29 01:29:59;;;;;;;5.28;2.67;;;12.80;99.90;;;;;;5023915;28;20045;-75
2022/10/29 01:32:50;;;;;;;3.35;2.25;;;12.90;99.90;;;;;;5007308;28;20120;-75
2022/10/29 01:35:23;;;;;;;9.60;3.20;;;12.90;99.90;;;;;;5006791;28;20064;-75
2022/10/29 01:37:55;;;;;;;12.48;3.30;;;12.80;99.90;;;;;;5007689;28;20053;-75
2022/10/29 01:40:23;;;;;;;19.02;2.60;;;12.80;99.90;;;;;;4990954;28;20098;-76
2022/10/29 01:42:56;;;;;;;8.68;2.88;;;12.80;99.90;;;;;;5006424;28;20095;-76
2022/10/29 01:45:35;;;;;;;3.47;2.63;;;12.80;99.90;;;;;;5007169;28;20053;-77
2022/10/29 01:48:12;;;;;;;2.50;2.28;;;12.80;99.90;;;;;;5006928;28;20060;-75
2022/10/29 01:50:41;;;;;;;3.58;2.95;;;12.70;99.90;;;;;;5027892;28;20136;-76
2022/10/29 01:53:07;;;;;;;3.53;2.50;;;12.70;99.90;;;;;;4993965;28;20096;-75
2022/10/29 01:55:36;;;;;;;6.60;2.67;;;12.70;99.90;;;;;;5010924;28;20447;-76
2022/10/29 01:58:06;;;;;;;5.53;2.97;;;12.60;99.90;;;;;;5008987;28;20096;-75
2022/10/29 02:00:48;;;;;;;3.25;2.95;;;12.70;99.90;;;;;;5027900;28;20137;-76
2022/10/29 02:03:41;;;;;;;5.15;3.33;;;12.60;99.90;;;;;;5027979;28;20045;-75
2022/10/29 02:06:14;;;;;;;3.63;3.05;;;12.60;99.90;;;;;;5010270;28;20057;-75
2022/10/29 02:08:58;;;;;;;6.05;3.00;;;12.60;99.90;;;;;;5027938;28;20816;-75
2022/10/29 02:11:41;;;;;;;3.20;2.90;;;12.50;99.90;;;;;;5010103;28;20070;-75
2022/10/29 02:14:13;;;;;;;6.15;4.10;;;12.60;99.90;;;;;;5026491;28;20033;-74
2022/10/29 02:16:40;;;;;;;3.65;3.30;;;12.50;99.90;;;;;;5009850;28;20187;-75
2022/10/29 02:19:05;;;;;;;4.00;3.60;;;12.50;99.90;;;;;;5027742;28;20042;-75
2022/10/29 02:21:31;;;;;;;4.05;3.65;;;12.60;99.90;;;;;;5027768;28;20057;-75
2022/10/29 02:23:57;;;;;;;5.07;3.47;;;12.60;99.90;;;;;;5027811;28;20045;-76
2022/10/29 02:26:22;;;;;;;3.63;2.95;;;12.60;99.90;;;;;;4995181;28;20392;-75
2022/10/29 02:28:48;;;;;;;3.85;3.45;;;12.60;99.90;;;;;;5007294;28;20053;-75
2022/10/29 02:31:14;;;;;;;9.30;3.58;;;12.60;99.90;;;;;;4990246;28;20506;-75
2022/10/29 02:33:39;;;;;;;3.60;3.30;;;12.50;99.90;;;;;;5026933;28;20041;-75
2022/10/29 02:36:05;;;;;;;4.22;3.22;;;12.50;99.90;;;;;;5009194;28;20047;-76
2022/10/29 02:38:31;;;;;;;3.90;3.20;;;12.50;99.90;;;;;;5010353;28;20087;-75
2022/10/29 02:40:56;;;;;;;4.22;3.75;;;12.50;99.90;;;;;;5009224;28;20049;-75
2022/10/29 02:43:22;;;;;;;4.55;4.15;;;12.50;99.90;;;;;;5026598;28;20045;-75
2022/10/29 02:45:47;;;;;;;5.10;3.58;;;12.50;99.90;;;;;;5027741;28;20046;-74
2022/10/29 02:48:13;;;;;;;3.65;3.30;;;12.50;99.90;;;;;;5027060;28;20052;-75
2022/10/29 02:50:38;;;;;;;3.65;3.28;;;12.50;99.90;;;;;;5027232;28;20581;-75
2022/10/29 02:53:04;;;;;;;5.60;4.00;;;12.50;99.90;;;;;;5009091;28;20056;-75
2022/10/29 02:55:30;;;;;;;4.78;3.65;;;12.50;99.90;;;;;;5027164;28;20120;-75
2022/10/29 02:57:55;;;;;;;5.18;3.40;;;12.50;99.90;;;;;;5025874;28;20419;-75
2022/10/29 03:00:21;;;;;;;4.55;3.67;;;12.50;99.90;;;;;;5025863;28;20145;-76
2022/10/29 03:02:50;;;;;;;4.20;3.80;;;12.50;99.90;;;;;;5027720;28;20052;-76
2022/10/29 03:05:16;;;;;;;3.55;3.05;;;12.50;99.90;;;;;;5027346;28;20080;-75
2022/10/29 03:07:41;;;;;;;3.50;3.13;;;12.40;99.90;;;;;;5009486;28;20492;-76
2022/10/29 03:10:07;;;;;;;3.30;3.00;;;12.40;99.90;;;;;;5008743;28;20045;-75
2022/10/29 03:12:33;;;;;;;3.75;3.42;;;12.50;99.90;;;;;;5025926;28;20491;-76
2022/10/29 03:14:59;;;;;;;4.15;3.75;;;12.40;99.90;;;;;;5026403;28;20081;-75
2022/10/29 03:17:24;;;;;;;3.85;3.03;;;12.40;99.90;;;;;;5005781;28;20189;-75
2022/10/29 03:19:50;;;;;;;4.78;3.38;;;12.40;99.90;;;;;;5019619;28;20046;-76
2022/10/29 03:22:16;;;;;;;5.53;4.57;;;12.50;99.90;;;;;;5027129;28;20563;-75
2022/10/29 03:24:41;;;;;;;4.68;2.85;;;12.50;99.90;;;;;;5025196;28;20261;-76
2022/10/29 03:27:07;;;;;;;3.35;3.05;;;12.40;99.90;;;;;;5023665;28;20045;-75
2022/10/29 03:29:32;;;;;;;8.10;3.55;;;12.40;99.90;;;;;;5025796;28;20139;-75
2022/10/29 03:31:58;;;;;;;4.28;3.30;;;12.50;99.90;;;;;;5008314;28;20053;-76
2022/10/29 03:34:23;;;;;;;3.20;2.88;;;12.50;99.90;;;;;;5008407;28;20139;-75
2022/10/29 03:36:49;;;;;;;7.45;3.30;;;12.50;99.90;;;;;;5026678;28;20042;-75
2022/10/29 03:39:15;;;;;;;3.28;2.97;;;12.50;99.90;;;;;;5026832;28;20396;-76
2022/10/29 03:41:40;;;;;;;3.42;3.13;;;12.50;99.90;;;;;;5008535;28;20041;-75
2022/10/29 03:44:06;;;;;;;5.07;3.35;;;12.40;99.90;;;;;;5025079;28;20045;-76
2022/10/29 03:46:31;;;;;;;3.28;2.88;;;12.50;99.90;;;;;;5026054;28;20033;-76
2022/10/29 03:48:57;;;;;;;5.13;3.28;;;12.50;99.90;;;;;;5008294;28;20055;-76
2022/10/29 03:51:23;;;;;;;10.32;3.53;;;12.40;99.90;;;;;;5008143;28;20391;-75
2022/10/29 03:53:48;;;;;;;5.13;3.30;;;12.50;99.90;;;;;;5008766;28;20082;-75
2022/10/29 03:56:14;;;;;;;4.88;3.28;;;12.50;99.90;;;;;;5025517;28;20034;-75
2022/10/29 03:58:39;;;;;;;3.92;3.63;;;12.50;99.90;;;;;;5025362;28;20112;-74
2022/10/29 04:01:07;;;;;;;4.22;3.55;;;12.50;99.90;;;;;;5025990;28;20675;-76
2022/10/29 04:03:35;;;;;;;4.32;3.47;;;12.50;99.90;;;;;;5008223;28;20139;-74
2022/10/29 04:06:07;;;;;;;3.80;3.30;;;12.50;99.90;;;;;;5007963;28;20494;-75
2022/10/29 04:08:33;;;;;;;5.95;3.13;;;12.50;99.90;;;;;;4991094;28;21644;-76
2022/10/29 04:10:58;;;;;;;4.03;3.05;;;12.50;99.90;;;;;;5004689;28;20041;-75
2022/10/29 04:13:24;;;;;;;9.30;3.63;;;12.50;99.90;;;;;;5004854;28;20136;-76
2022/10/29 04:15:53;;;;;;;3.67;2.88;;;12.50;99.90;;;;;;5004430;28;20052;-76
2022/10/29 04:18:19;;;;;;;4.05;3.17;;;12.50;99.90;;;;;;5005335;28;20046;-75
2022/10/29 04:20:44;;;;;;;4.95;3.42;;;12.50;99.90;;;;;;5005147;28;20400;-76
2022/10/29 04:23:10;;;;;;;4.30;3.30;;;12.50;99.90;;;;;;4988332;28;20100;-74
2022/10/29 04:25:36;;;;;;;5.60;3.92;;;12.50;99.90;;;;;;4999182;28;20144;-76
2022/10/29 04:28:01;;;;;;;5.47;3.92;;;12.50;99.90;;;;;;5018774;28;20519;-76
2022/10/29 04:30:27;;;;;;;5.35;3.80;;;12.50;99.90;;;;;;5025780;28;20050;-74
2022/10/29 04:32:57;;;;;;;6.80;4.50;;;12.50;99.90;;;;;;5007436;28;20045;-76
2022/10/29 04:35:23;;;;;;;6.20;4.68;;;12.50;99.90;;;;;;5007664;28;20478;-76
2022/10/29 04:37:49;;;;;;;5.93;4.80;;;12.50;99.90;;;;;;5025690;28;20422;-75
2022/10/29 04:40:14;;;;;;;5.63;4.53;;;12.50;99.90;;;;;;5025397;28;20037;-75
2022/10/29 04:42:40;;;;;;;6.60;5.35;;;12.50;99.90;;;;;;5024619;28;20045;-76
2022/10/29 04:45:06;;;;;;;8.70;5.07;;;12.50;99.90;;;;;;5007505;28;20053;-75
2022/10/29 04:47:32;;;;;;;11.43;4.55;;;12.60;99.90;;;;;;5024628;28;20133;-75
2022/10/29 04:49:58;;;;;;;12.88;7.13;;;12.60;99.90;;;;;;5006980;28;20116;-75
2022/10/29 04:52:24;;;;;;;9.80;6.53;;;12.60;99.90;;;;;;5024975;28;20568;-76
2022/10/29 04:54:50;;;;;;;12.93;7.47;;;12.60;99.90;;;;;;5024782;28;20045;-76
2022/10/29 04:57:15;;;;;;;11.57;6.95;;;12.60;99.90;;;;;;5007423;28;20045;-75
2022/10/29 04:59:41;;;;;;;8.70;7.38;;;12.60;99.90;;;;;;5025335;28;20038;-75
2022/10/29 05:02:07;;;;;;;13.13;7.47;;;12.70;99.90;;;;;;5024951;28;20049;-75
2022/10/29 05:04:32;;;;;;;9.85;7.13;;;12.70;99.90;;;;;;5007348;28;20045;-75
2022/10/29 05:06:58;;;;;;;7.25;5.57;;;12.70;99.90;;;;;;5024629;28;20038;-76
2022/10/29 05:09:23;;;;;;;13.63;7.32;;;12.70;99.90;;;;;;4991533;28;20187;-76
2022/10/29 05:11:49;;;;;;;10.15;6.95;;;12.70;99.90;;;;;;5007332;28;20396;-76
2022/10/29 05:14:14;;;;;;;11.65;7.93;;;12.70;99.90;;;;;;5024694;28;20402;-75
2022/10/29 05:16:41;;;;;;;10.57;7.72;;;12.70;99.90;;;;;;5007578;28;20049;-76
2022/10/29 05:19:07;;;;;;;13.18;8.27;;;12.70;99.90;;;;;;5006780;28;20132;-75
2022/10/29 05:21:32;;;;;;;9.88;6.93;;;12.70;99.90;;;;;;5024894;28;20050;-76
2022/10/29 05:23:58;;;;;;;11.02;7.22;;;12.80;99.90;;;;;;5007789;28;20046;-74
2022/10/29 05:26:23;;;;;;;17.15;8.13;;;12.80;99.90;;;;;;5013694;28;20374;-75
2022/10/29 05:28:50;;;;;;;18.08;8.52;;;12.80;99.90;;;;;;5025707;28;20440;-75
2022/10/29 05:31:16;;;;;;;17.27;7.10;;;12.80;99.90;;;;;;5011222;28;20055;-76
2022/10/29 05:33:41;;;;;;;25.52;7.82;;;12.90;99.90;;;;;;5028455;28;20045;-76
2022/10/29 05:36:07;;;;;;;15.25;7.28;;;12.80;99.90;;;;;;5028028;28;20045;-75
2022/10/29 05:38:33;;;;;;;14.70;6.85;;;12.80;99.90;;;;;;5010653;28;20476;-75
2022/10/29 05:40:58;;;;;;;8.77;6.00;;;12.90;99.90;;;;;;5026668;28;20043;-76
2022/10/29 05:43:24;;;;;;;14.32;7.57;;;12.90;99.90;;;;;;4991191;28;20050;-76
2022/10/29 05:45:50;;;;;;;24.70;7.82;;;12.90;99.90;;;;;;5028013;28;20071;-76
2022/10/29 05:48:15;;;;;;;10.75;6.63;;;12.80;99.90;;;;;;5028763;28;20046;-76
2022/10/29 05:50:41;;;;;;;13.35;7.13;;;12.80;99.90;;;;;;5027953;28;20087;-76
2022/10/29 05:53:09;;;;;;;23.55;5.97;;;12.80;99.90;;;;;;5027627;28;20479;-76
2022/10/29 05:55:36;;;;;;;16.58;6.57;;;12.80;99.90;;;;;;5028454;28;20049;-76
2022/10/29 05:58:10;;;;;;;15.93;7.15;;;12.90;99.90;;;;;;5027155;28;20033;-76
2022/10/29 06:00:37;;;;;;;9.90;6.07;;;12.80;99.90;;;;;;5010524;28;20049;-76
2022/10/29 06:03:03;;;;;;;19.20;5.95;;;12.90;99.90;;;;;;5027604;28;20088;-76
2022/10/29 06:05:29;;;;;;;10.40;5.60;;;12.80;99.90;;;;;;5027814;28;20038;-76
2022/10/29 06:07:56;;;;;;;13.48;6.93;;;12.80;99.90;;;;;;5027485;28;20677;-76
2022/10/29 06:10:23;;;;;;;9.20;6.85;;;12.80;99.90;;;;;;5009944;28;20524;-76
2022/10/29 06:12:49;;;;;;;17.27;6.93;;;12.80;99.90;;;;;;5006404;28;20442;-76
2022/10/29 06:15:15;;;;;;;11.60;7.78;;;12.80;99.90;;;;;;4994605;28;20370;-75
2022/10/29 06:17:41;;;;;;;10.65;6.88;;;12.80;99.90;;;;;;5024312;28;20063;-76
2022/10/29 06:20:08;;;;;;;11.30;7.60;;;12.80;99.90;;;;;;5026997;28;20472;-76
2022/10/29 06:22:34;;;;;;;14.25;8.05;;;12.80;99.90;;;;;;5027200;28;20120;-76
2022/10/29 06:25:00;;;;;;;11.00;7.05;;;12.80;99.90;;;;;;5005361;28;20168;-76
2022/10/29 06:27:25;;;;;;;8.98;7.45;;;12.80;99.90;;;;;;4972834;28;20511;-76
2022/10/29 06:29:51;;;;;;;12.73;7.32;;;12.80;99.90;;;;;;5007139;28;20471;-76
2022/10/29 06:32:16;;;;;;;9.00;6.05;;;12.80;99.90;;;;;;5012924;28;20029;-76
2022/10/29 06:34:42;;;;;;;7.95;5.45;;;12.80;99.90;;;;;;5008707;28;20053;-76
2022/10/29 06:37:07;;;;;;;11.80;6.03;;;12.80;99.90;;;;;;5026167;28;20041;-78
2022/10/29 06:39:33;;;;;;;11.00;7.32;;;12.80;99.90;;;;;;5027145;28;20041;-78
2022/10/29 06:41:59;;;;;;;9.70;6.20;;;12.80;99.90;;;;;;5026296;28;20076;-76
2022/10/29 06:44:24;;;;;;;8.57;6.05;;;12.80;99.90;;;;;;5009741;28;20085;-76
2022/10/29 06:46:50;;;;;;;10.23;6.55;;;12.80;99.90;;;;;;5025081;28;20046;-76
2022/10/29 06:49:15;;;;;;;14.85;7.90;;;12.80;99.90;;;;;;5022432;28;20402;-76
2022/10/29 06:51:41;;;;;;;13.07;7.03;;;12.80;99.90;;;;;;4989547;28;20416;-76
2022/10/29 06:54:06;;;;;;;9.07;5.93;;;12.70;99.90;;;;;;5005039;28;20331;-77
2022/10/29 06:56:33;;;;;;;12.52;6.90;;;12.80;99.90;;;;;;4988807;28;20045;-76
2022/10/29 06:58:59;;;;;;;11.55;7.57;;;12.80;99.90;;;;;;4987496;28;20077;-76
2022/10/29 07:01:27;;;;;;;9.70;6.82;;;12.80;99.90;;;;;;5006642;28;20080;-76
2022/10/29 07:03:53;;;;;;;11.48;7.03;;;12.80;99.90;;;;;;5006215;28;20041;-76
2022/10/29 07:06:19;;;;;;;11.48;6.82;;;12.80;99.90;;;;;;5006588;28;20045;-76
2022/10/29 07:08:45;;;;;;;10.80;7.63;;;12.80;99.90;;;;;;5006755;28;20531;-75
2022/10/29 07:11:10;;;;;;;13.05;7.95;;;12.80;99.90;;;;;;5004556;28;20081;-76
2022/10/29 07:13:36;;;;;;;13.95;9.07;;;12.90;99.90;;;;;;5004314;28;20092;-76
2022/10/29 07:16:01;;;;;;;13.55;8.85;;;12.90;99.90;;;;;;5005387;28;20389;-76
2022/10/29 07:18:27;;;;;;;12.40;8.30;;;12.90;99.90;;;;;;4988008;28;20046;-76
2022/10/29 07:20:52;;;;;;;16.33;9.18;;;12.90;99.90;;;;;;4987879;28;20042;-76
2022/10/29 07:23:18;;;;;;;20.25;8.23;;;12.90;99.90;;;;;;5006701;28;20443;-76
2022/10/29 07:25:44;;;;;;;14.25;8.48;;;12.90;99.90;;;;;;4988046;28;20403;-76
2022/10/29 07:28:16;;;;;;;13.55;8.43;;;12.90;99.90;;;;;;4987129;28;20045;-76
2022/10/29 07:30:43;;;;;;;19.23;9.90;;;13.00;99.90;;;;;;4991896;28;20037;-76
2022/10/29 07:33:09;;;;;;;12.80;8.85;;;12.90;99.90;;;;;;5022890;28;20156;-76
2022/10/29 07:35:35;;;;;;;18.58;10.25;;;13.00;99.90;;;;;;4994709;28;20037;-76
2022/10/29 07:38:05;;;;;;;20.02;10.23;;;13.00;99.90;;;;;;5019655;28;20026;-76
2022/10/29 07:40:31;;;;;;;26.40;10.85;;;13.00;99.90;;;;;;4972027;28;20042;-76
2022/10/29 07:42:56;;;;;;;19.38;7.57;;;13.00;99.90;;;;;;4986491;28;20088;-76
2022/10/29 07:45:22;;;;;;;19.02;9.05;;;13.10;99.90;;;;;;4987930;28;20050;-76
2022/10/29 07:47:48;;;;;;;16.35;8.85;;;13.10;99.90;;;;;;4988781;28;20125;-76
2022/10/29 07:50:14;;;;;;;16.42;8.60;;;13.10;99.90;;;;;;4988393;28;20041;-76
2022/10/29 07:52:40;;;;;;;19.23;10.80;;;13.10;99.90;;;;;;4987878;28;20190;-76
2022/10/29 07:55:07;;;;;;;23.58;10.30;;;13.10;99.90;;;;;;5005170;28;20424;-76
2022/10/29 07:57:33;;;;;;;24.42;11.40;;;13.20;99.90;;;;;;4986814;28;20085;-76
2022/10/29 07:59:58;;;;;;;22.63;12.90;;;13.20;99.90;;;;;;5000988;28;20034;-76
2022/10/29 08:02:24;;;;;;;20.35;11.02;;;13.20;99.90;;;;;;5022487;28;20064;-76
2022/10/29 08:04:49;;;;;;;26.65;12.25;;;13.20;99.90;;;;;;5007979;28;20395;-76
2022/10/29 08:07:15;;;;;;;26.08;10.95;;;13.20;99.90;;;;;;5013400;28;20085;-76
2022/10/29 08:09:40;;;;;;;27.90;12.35;;;13.30;99.90;;;;;;5005203;28;20045;-76
2022/10/29 08:12:10;;;;;;;25.52;14.32;;;13.30;99.90;;;;;;4986797;28;20481;-76
2022/10/29 08:14:35;;;;;;;34.70;15.05;;;13.30;99.90;;;;;;5004156;28;20061;-76
2022/10/29 08:17:01;;;;;;;29.90;15.18;;;13.40;99.90;;;;;;5010313;28;20412;-76
2022/10/29 08:19:28;;;;;;;25.88;15.50;;;13.40;99.90;;;;;;4987511;28;20121;-76
2022/10/29 08:21:58;;;;;;;35.45;16.58;;;13.40;99.90;;;;;;5005307;28;20103;-76
2022/10/29 08:24:23;;;;;;;30.25;16.08;;;13.40;99.90;;;;;;5004791;28;20042;-76
2022/10/29 08:26:50;;;;;;;33.47;19.40;;;13.40;99.90;;;;;;5003940;28;20048;-76
2022/10/29 08:29:16;;;;;;;45.13;19.65;;;13.50;99.90;;;;;;5005282;28;20069;-76
2022/10/29 08:31:41;;;;;;;36.33;17.77;;;13.50;99.90;;;;;;4986401;28;20049;-76
2022/10/29 08:34:07;;;;;;;33.67;18.65;;;13.50;99.90;;;;;;4996917;28;20451;-76
2022/10/29 08:36:32;;;;;;;28.88;17.73;;;13.50;99.90;;;;;;5004827;28;20183;-76
2022/10/29 08:38:58;;;;;;;37.90;19.42;;;13.50;99.90;;;;;;5004593;28;20046;-76
2022/10/29 08:41:38;;;;;;;43.45;20.75;;;13.50;99.90;;;;;;5004886;28;20046;-76
2022/10/29 08:44:24;;;;;;;41.35;19.02;;;13.60;99.90;;;;;;4987109;28;20368;-76
2022/10/29 08:46:55;;;;;;;47.38;22.25;;;13.60;99.90;;;;;;5004667;28;20049;-76
2022/10/29 08:49:46;;;;;;;48.97;22.85;;;13.70;99.90;;;;;;5011673;28;20099;-76
2022/10/29 08:52:43;;;;;;;41.65;20.98;;;13.70;99.90;;;;;;5016383;28;20129;-76
2022/10/29 08:55:34;;;;;;;44.28;23.08;;;13.70;99.90;;;;;;5007055;28;20119;-76
2022/10/29 08:58:18;;;;;;;47.78;23.58;;;13.70;99.90;;;;;;5009350;28;20034;-76
2022/10/29 09:00:43;;;;;;;41.63;23.92;;;13.80;99.90;;;;;;5006513;28;20050;-75
2022/10/29 09:03:12;;;;;;;47.88;24.95;;;13.80;99.90;;;;;;5008332;28;20389;-76
2022/10/29 09:05:59;;;;;;;38.50;22.30;;;13.80;99.90;;;;;;5008289;28;20044;-75
2022/10/29 09:08:30;;;;;;;50.35;23.75;;;13.80;99.90;;;;;;4991362;28;20423;-75
2022/10/29 09:11:00;;;;;;;46.60;22.80;;;13.80;99.90;;;;;;5026661;28;20050;-76
2022/10/29 09:13:40;;;;;;;33.92;20.55;;;13.90;99.90;;;;;;5012607;28;20056;-76
2022/10/29 09:16:18;;;;;;;35.92;21.77;;;13.90;99.90;;;;;;5013915;28;20111;-76
2022/10/29 09:19:17;;;;;;;37.05;22.27;;;13.90;99.90;;;;;;5007393;28;20127;-79
2022/10/29 09:22:01;;;;;;;43.13;22.65;;;13.90;99.90;;;;;;5007512;28;20068;-78
2022/10/29 09:24:37;;;;;;;46.05;22.75;;;13.90;99.90;;;;;;5010422;28;20550;-79
2022/10/29 09:27:22;;;;;;;37.38;21.30;;;13.80;99.90;;;;;;5006092;28;20026;-79
2022/10/29 09:30:05;;;;;;;33.25;20.75;;;13.90;99.90;;;;;;5008833;28;20042;-79
2022/10/29 09:32:42;;;;;;;33.40;21.05;;;13.90;99.90;;;;;;5007969;28;20037;-78
2022/10/29 09:35:16;;;;;;;36.50;19.90;;;13.90;99.90;;;;;;5008169;28;20046;-79
2022/10/29 09:38:00;;;;;;;45.78;22.77;;;14.00;99.90;;;;;;4988274;28;20108;-80
2022/10/29 09:40:31;;;;;;;35.08;20.88;;;14.00;99.90;;;;;;5007787;28;20034;-79
2022/10/29 09:43:00;;;;;;;49.78;22.13;;;14.00;99.90;;;;;;5020683;28;20099;-79
2022/10/29 09:45:44;;;;;;;46.17;23.60;;;14.10;99.90;;;;;;5012043;28;20049;-79
2022/10/29 09:48:21;;;;;;;38.67;21.23;;;14.10;99.90;;;;;;5008249;28;20663;-79
2022/10/29 09:51:24;;;;;;;37.65;22.10;;;14.20;99.90;;;;;;5009268;28;20038;-79
2022/10/29 09:53:51;;;;;;;34.72;20.50;;;14.30;99.90;;;;;;4990828;28;20558;-79
2022/10/29 09:56:16;;;;;;;40.90;19.90;;;14.30;99.90;;;;;;4972873;28;20042;-78
2022/10/29 09:58:49;;;;;;;43.28;21.23;;;14.40;99.90;;;;;;4999277;28;20041;-79
2022/10/29 10:01:15;;;;;;;37.85;19.83;;;14.40;99.90;;;;;;5008610;28;20050;-78
2022/10/29 10:03:44;;;;;;;33.85;18.92;;;14.50;99.90;;;;;;4991301;28;20115;-79
2022/10/29 10:06:12;;;;;;;34.88;18.25;;;14.50;99.90;;;;;;4974185;28;20046;-79
2022/10/29 10:08:58;;;;;;;36.42;18.00;;;14.50;99.90;;;;;;5008117;28;20046;-78
2022/10/29 10:11:25;;;;;;;28.02;17.90;;;14.60;99.90;;;;;;4988663;28;20052;-79
2022/10/29 10:13:57;;;;;;;35.55;20.67;;;14.60;99.90;;;;;;5020086;28;20500;-80
2022/10/29 10:16:26;;;;;;;35.40;19.83;;;14.70;99.90;;;;;;5006528;28;20096;-79
2022/10/29 10:18:52;;;;;;;43.35;19.80;;;14.70;99.90;;;;;;5006234;28;20049;-79
2022/10/29 10:21:25;;;;;;;36.58;19.75;;;14.70;99.90;;;;;;5007114;28;20025;-79
2022/10/29 10:23:56;;;;;;;30.77;18.98;;;14.80;99.90;;;;;;4989505;28;20041;-78
2022/10/29 10:26:35;;;;;;;29.85;19.38;;;14.80;99.90;;;;;;5018787;28;20040;-76
2022/10/29 10:29:26;;;;;;;33.97;18.35;;;14.90;99.90;;;;;;4972111;28;20081;-76
2022/10/29 10:31:54;;;;;;;30.17;20.15;;;14.90;99.90;;;;;;5006972;28;20478;-76
2022/10/29 10:34:21;;;;;;;32.72;19.77;;;15.00;99.90;;;;;;5006146;28;20100;-77
2022/10/29 10:36:49;;;;;;;33.85;18.48;;;15.00;99.90;;;;;;5006239;28;20041;-76
2022/10/29 10:39:38;;;;;;;32.38;19.10;;;15.10;99.90;;;;;;4990080;28;20061;-77
2022/10/29 10:42:13;;;;;;;46.20;19.00;;;15.10;99.90;;;;;;4977185;28;20475;-76
2022/10/29 10:44:46;;;;;;;36.47;18.42;;;15.20;99.90;;;;;;5007023;28;20527;-75
2022/10/29 10:47:11;;;;;;;37.28;19.02;;;15.20;99.90;;;;;;4988411;28;20073;-76
2022/10/29 10:49:37;;;;;;;42.55;19.77;;;15.20;99.90;;;;;;5006599;28;20523;-76
2022/10/29 10:52:14;;;;;;;28.88;18.15;;;15.20;99.90;;;;;;4999876;28;20129;-76
2022/10/29 10:54:44;;;;;;;32.75;17.42;;;15.20;99.90;;;;;;4977984;28;20585;-76
2022/10/29 10:57:09;;;;;;;27.08;18.25;;;15.30;99.90;;;;;;4988752;28;20131;-76
2022/10/29 10:59:46;;;;;;;27.05;18.00;;;15.30;99.90;;;;;;4989001;28;20488;-77
2022/10/29 11:02:21;;;;;;;40.92;19.33;;;15.40;99.90;;;;;;4974189;28;20169;-77
2022/10/29 11:04:54;;;;;;;26.20;15.93;;;15.50;99.90;;;;;;5008742;28;20430;-77
2022/10/29 11:07:22;;;;;;;37.75;19.80;;;15.50;99.90;;;;;;5002605;28;20134;-76
2022/10/29 11:09:51;;;;;;;34.05;19.65;;;15.60;99.90;;;;;;5012912;28;20136;-76
2022/10/29 11:12:33;;;;;;;32.60;16.73;;;15.60;99.90;;;;;;5005960;28;20100;-76
2022/10/29 11:15:05;;;;;;;26.95;18.55;;;15.60;99.90;;;;;;4996549;28;20053;-77
2022/10/29 11:17:43;;;;;;;;;;;15.60;99.90;;;;;;4974661;28;20046;-80
2022/10/29 11:20:30;;;;;;;34.08;17.33;;;15.70;99.90;;;;;;4980792;28;19929;-76
2022/10/29 11:23:24;;;;;;;38.30;19.67;;;15.70;99.90;;;;;;4958940;28;20149;-76
2022/10/29 11:25:59;;;;;;;33.78;18.73;;;15.70;99.90;;;;;;4955458;28;20053;-77
2022/10/29 11:28:47;;;;;;;36.67;18.42;;;15.70;99.90;;;;;;4987583;28;20140;-76
2022/10/29 11:31:23;;;;;;;31.75;18.30;;;15.70;99.90;;;;;;5010142;28;20071;-76
2022/10/29 11:34:04;;;;;;;29.08;15.63;;;15.70;99.90;;;;;;4985417;28;20050;-76
2022/10/29 11:36:37;;;;;;;26.70;17.05;;;15.80;99.90;;;;;;5005344;28;20046;-78
2022/10/29 11:39:16;;;;;;;24.83;15.35;;;15.80;99.90;;;;;;5019645;28;20048;-77
2022/10/29 11:41:57;;;;;;;25.95;14.95;;;15.90;99.90;;;;;;5005426;28;20037;-77
2022/10/29 11:44:24;;;;;;;28.23;16.77;;;15.90;99.90;;;;;;5004056;28;20049;-77
2022/10/29 11:46:58;;;;;;;25.95;15.45;;;16.00;99.90;;;;;;5025081;28;20512;-77
2022/10/29 11:49:48;;;;;;;37.97;15.48;;;16.00;99.90;;;;;;4991151;28;20100;-75
2022/10/29 11:52:24;;;;;;;27.40;15.85;;;16.00;99.90;;;;;;5024155;28;20543;-74
2022/10/29 11:55:14;;;;;;;24.25;13.77;;;16.10;99.90;;;;;;5007113;28;20120;-76
2022/10/29 11:57:46;;;;;;;26.80;14.15;;;16.10;99.90;;;;;;5003901;28;20500;-74
2022/10/29 12:00:20;;;;;;;30.48;15.23;;;16.10;99.90;;;;;;5016296;28;20119;-76
2022/10/29 12:03:04;;;;;;;23.88;14.43;;;16.10;99.90;;;;;;5005104;28;20565;-76
2022/10/29 12:05:48;;;;;;;20.40;13.40;;;16.10;99.90;;;;;;5004986;28;20061;-75
2022/10/29 12:08:42;;;;;;;21.63;12.75;;;16.10;99.90;;;;;;4985278;28;20050;-75
2022/10/29 12:11:20;;;;;;;28.80;16.35;;;16.10;99.90;;;;;;4979592;28;20404;-75
2022/10/29 12:13:55;;;;;;;22.42;15.75;;;16.20;99.90;;;;;;5005359;28;20076;-75
2022/10/29 12:16:31;;;;;;;25.80;13.77;;;16.30;99.90;;;;;;5005012;28;20077;-76
2022/10/29 12:19:13;;;;;;;24.67;14.32;;;16.40;99.90;;;;;;5004977;28;20084;-74
2022/10/29 12:21:45;;;;;;;;;;;16.40;99.90;;;;;;5005379;28;20056;-76
2022/10/29 12:24:29;;;;;;;27.27;13.13;;;16.50;99.90;;;;;;5004392;28;19929;-76
2022/10/29 12:27:07;;;;;;;29.38;14.98;;;16.50;99.90;;;;;;4985846;28;20049;-76
2022/10/29 12:29:52;;;;;;;26.23;12.55;;;16.60;99.90;;;;;;5002257;28;20048;-76
2022/10/29 12:32:43;;;;;;;21.38;12.95;;;16.60;99.90;;;;;;4991509;28;20132;-75
2022/10/29 12:35:15;;;;;;;29.10;13.95;;;16.70;99.90;;;;;;4993946;28;20050;-76
2022/10/29 12:38:35;;;;;;;19.70;12.27;;;16.60;99.90;;;;;;4987319;28;20191;-76
2022/10/29 12:41:05;;;;;;;16.63;11.27;;;16.70;99.90;;;;;;4906069;29;20296;-83
2022/10/29 12:43:33;;;;;;;18.10;11.38;;;16.70;99.90;;;;;;5002940;28;20062;-75
2022/10/29 12:46:17;;;;;;;21.58;12.57;;;16.70;99.90;;;;;;5006296;28;20696;-76
2022/10/29 12:48:57;;;;;;;19.38;12.55;;;16.70;99.90;;;;;;5024309;28;20048;-76
2022/10/29 12:51:41;;;;;;;19.40;11.25;;;16.70;99.90;;;;;;5024089;28;20069;-77
2022/10/29 12:54:15;;;;;;;21.17;12.73;;;16.70;99.90;;;;;;5006269;28;20060;-76
2022/10/29 12:56:41;;;;;;;17.55;12.10;;;16.70;99.90;;;;;;5005673;28;20060;-75